LOG941F EGHI-EGPD
Flight info
| Callsign | LOG941F |
|---|---|
| Flight time | N/A |
| Altitude | 34000 |
| Route | NORRY Q41 SILVA UM605 DTY DCT ALASO DCT MADAD P18 EPCAN |
| Aircraft | E145/M-SDFGIRW/S |
Departure
| Time | 2026-05-06 07:27 |
|---|---|
| Airport | Southampton Airport (EGHI) |
Arrival
| Time | N/A |
|---|---|
| Airport | Aberdeen International Airport (EGPD) |
| Time | Latitude | Longitude | Altitude | Speed | Heading |
|---|---|---|---|---|---|
| 2026-05-06 07:07 | 50.95140 | -1.35963 | 41 ft | 0 kts | 290° |
| 2026-05-06 07:19 | 50.95136 | -1.35948 | 41 ft | 2 kts | 290° |
| 2026-05-06 07:20 | 50.95131 | -1.35925 | 41 ft | 2 kts | 290° |
| 2026-05-06 07:20 | 50.95129 | -1.35902 | 41 ft | 2 kts | 257° |
| 2026-05-06 07:20 | 50.95136 | -1.35881 | 41 ft | 2 kts | 226° |
| 2026-05-06 07:20 | 50.95148 | -1.35869 | 41 ft | 2 kts | 197° |
| 2026-05-06 07:21 | 50.95158 | -1.35864 | 41 ft | 0 kts | 198° |
| 2026-05-06 07:21 | 50.95159 | -1.35864 | 41 ft | 0 kts | 198° |
| 2026-05-06 07:22 | 50.95158 | -1.35864 | 41 ft | 0 kts | 198° |
| 2026-05-06 07:23 | 50.95138 | -1.35874 | 41 ft | 5 kts | 198° |
| 2026-05-06 07:23 | 50.95091 | -1.35898 | 41 ft | 7 kts | 198° |
| 2026-05-06 07:23 | 50.95049 | -1.35871 | 41 ft | 8 kts | 111° |
| 2026-05-06 07:23 | 50.95031 | -1.35772 | 41 ft | 10 kts | 107° |
| 2026-05-06 07:24 | 50.94983 | -1.35706 | 41 ft | 11 kts | 189° |
| 2026-05-06 07:24 | 50.94896 | -1.35754 | 40 ft | 14 kts | 199° |
| 2026-05-06 07:24 | 50.94797 | -1.35807 | 40 ft | 15 kts | 199° |
| 2026-05-06 07:24 | 50.94684 | -1.35870 | 39 ft | 18 kts | 199° |
| 2026-05-06 07:25 | 50.94555 | -1.35943 | 38 ft | 20 kts | 200° |
| 2026-05-06 07:25 | 50.94411 | -1.36024 | 36 ft | 23 kts | 200° |
| 2026-05-06 07:25 | 50.94313 | -1.36090 | 34 ft | 5 kts | 181° |
| 2026-05-06 07:25 | 50.94308 | -1.36082 | 34 ft | 0 kts | 104° |
| 2026-05-06 07:26 | 50.94309 | -1.36078 | 34 ft | 0 kts | 67° |
| 2026-05-06 07:26 | 50.94313 | -1.36076 | 34 ft | 0 kts | 21° |
| 2026-05-06 07:26 | 50.94321 | -1.36072 | 35 ft | 0 kts | 19° |
| 2026-05-06 07:27 | 50.94473 | -1.35987 | 37 ft | 58 kts | 20° |
| 2026-05-06 07:27 | 50.95078 | -1.35649 | 39 ft | 121 kts | 20° |
| 2026-05-06 07:27 | 50.95932 | -1.35183 | 387 ft | 131 kts | 18° |
| 2026-05-06 07:27 | 50.96829 | -1.34779 | 873 ft | 142 kts | 13° |
| 2026-05-06 07:28 | 50.97818 | -1.34456 | 1437 ft | 149 kts | 15° |
| 2026-05-06 07:28 | 50.98826 | -1.34061 | 2092 ft | 151 kts | 17° |
| 2026-05-06 07:28 | 51.00892 | -1.33187 | 3068 ft | 165 kts | 17° |
| 2026-05-06 07:29 | 51.02083 | -1.32668 | 3358 ft | 188 kts | 17° |
| 2026-05-06 07:29 | 51.03418 | -1.32084 | 3696 ft | 210 kts | 16° |
| 2026-05-06 07:29 | 51.04937 | -1.31419 | 3895 ft | 237 kts | 16° |
| 2026-05-06 07:29 | 51.06546 | -1.30712 | 4562 ft | 242 kts | 15° |
| 2026-05-06 07:30 | 51.08156 | -1.30004 | 5294 ft | 243 kts | 14° |
| 2026-05-06 07:30 | 51.09806 | -1.29279 | 5971 ft | 247 kts | 14° |
| 2026-05-06 07:30 | 51.11472 | -1.28546 | 6639 ft | 251 kts | 14° |
| 2026-05-06 07:30 | 51.13173 | -1.27797 | 7310 ft | 254 kts | 14° |
| 2026-05-06 07:31 | 51.14872 | -1.27048 | 7987 ft | 256 kts | 14° |
| 2026-05-06 07:31 | 51.16601 | -1.26285 | 8627 ft | 260 kts | 14° |
| 2026-05-06 07:31 | 51.18359 | -1.25509 | 9251 ft | 263 kts | 14° |
| 2026-05-06 07:31 | 51.20114 | -1.24734 | 9857 ft | 267 kts | 14° |
| 2026-05-06 07:32 | 51.21920 | -1.23935 | 10434 ft | 271 kts | 14° |
| 2026-05-06 07:32 | 51.23774 | -1.23114 | 10851 ft | 281 kts | 14° |
| 2026-05-06 07:32 | 51.25704 | -1.22259 | 11286 ft | 290 kts | 14° |
| 2026-05-06 07:32 | 51.27701 | -1.21374 | 11489 ft | 307 kts | 14° |
| 2026-05-06 07:33 | 51.29777 | -1.20452 | 11943 ft | 313 kts | 14° |
| 2026-05-06 07:33 | 51.31901 | -1.19509 | 12544 ft | 314 kts | 14° |
| 2026-05-06 07:33 | 51.34019 | -1.18567 | 13100 ft | 317 kts | 14° |
| 2026-05-06 07:33 | 51.36137 | -1.17624 | 13603 ft | 321 kts | 14° |
| 2026-05-06 07:34 | 51.38323 | -1.16650 | 14123 ft | 324 kts | 14° |
| 2026-05-06 07:34 | 51.40505 | -1.15677 | 14634 ft | 327 kts | 14° |
| 2026-05-06 07:34 | 51.42700 | -1.14698 | 15123 ft | 330 kts | 14° |
| 2026-05-06 07:34 | 51.44940 | -1.13697 | 15606 ft | 333 kts | 14° |
| 2026-05-06 07:35 | 51.47175 | -1.12698 | 16083 ft | 336 kts | 14° |
| 2026-05-06 07:35 | 51.49449 | -1.11709 | 16555 ft | 339 kts | 13° |
| 2026-05-06 07:35 | 51.51753 | -1.10723 | 17019 ft | 342 kts | 13° |
| 2026-05-06 07:35 | 51.54034 | -1.09745 | 17461 ft | 345 kts | 13° |
| 2026-05-06 07:36 | 51.56388 | -1.08735 | 17909 ft | 347 kts | 13° |
| 2026-05-06 07:36 | 51.58714 | -1.07736 | 18348 ft | 350 kts | 13° |
| 2026-05-06 07:36 | 51.61091 | -1.06716 | 18787 ft | 352 kts | 13° |
| 2026-05-06 07:36 | 51.63528 | -1.05995 | 19208 ft | 354 kts | 7° |
| 2026-05-06 07:37 | 51.65957 | -1.05377 | 19625 ft | 356 kts | 7° |
| 2026-05-06 07:37 | 51.68409 | -1.04750 | 20023 ft | 359 kts | 7° |
| 2026-05-06 07:37 | 51.70909 | -1.04108 | 20424 ft | 362 kts | 7° |
| 2026-05-06 07:37 | 51.73428 | -1.03461 | 20816 ft | 365 kts | 7° |
| 2026-05-06 07:38 | 51.75934 | -1.02817 | 21199 ft | 367 kts | 7° |
| 2026-05-06 07:38 | 51.78495 | -1.02157 | 21599 ft | 370 kts | 7° |
| 2026-05-06 07:38 | 51.81019 | -1.01506 | 22006 ft | 371 kts | 7° |
| 2026-05-06 07:38 | 51.83610 | -1.00846 | 22391 ft | 373 kts | 6° |
| 2026-05-06 07:39 | 51.86182 | -1.00985 | 22723 ft | 372 kts | 348° |
| 2026-05-06 07:39 | 51.88725 | -1.01821 | 23109 ft | 373 kts | 347° |
| 2026-05-06 07:39 | 51.91272 | -1.02647 | 23452 ft | 376 kts | 347° |
| 2026-05-06 07:39 | 51.93889 | -1.03496 | 23800 ft | 379 kts | 347° |
| 2026-05-06 07:40 | 51.96463 | -1.04333 | 24141 ft | 381 kts | 347° |
| 2026-05-06 07:40 | 51.99073 | -1.05182 | 24491 ft | 383 kts | 347° |
| 2026-05-06 07:40 | 52.01718 | -1.06044 | 24836 ft | 385 kts | 347° |
| 2026-05-06 07:40 | 52.04343 | -1.06900 | 25170 ft | 387 kts | 347° |
| 2026-05-06 07:41 | 52.06987 | -1.07764 | 25540 ft | 387 kts | 347° |
| 2026-05-06 07:41 | 52.09657 | -1.08637 | 25973 ft | 386 kts | 347° |
| 2026-05-06 07:41 | 52.12278 | -1.09495 | 26406 ft | 385 kts | 347° |
| 2026-05-06 07:41 | 52.14909 | -1.10357 | 26825 ft | 385 kts | 347° |
| 2026-05-06 07:42 | 52.17583 | -1.11235 | 27240 ft | 384 kts | 347° |
| 2026-05-06 07:42 | 52.20210 | -1.12223 | 27667 ft | 383 kts | 345° |
| 2026-05-06 07:42 | 52.22829 | -1.13262 | 28094 ft | 382 kts | 345° |
| 2026-05-06 07:42 | 52.25419 | -1.14284 | 28502 ft | 381 kts | 345° |
| 2026-05-06 07:43 | 52.28034 | -1.15314 | 28920 ft | 380 kts | 345° |
| 2026-05-06 07:43 | 52.30598 | -1.16326 | 29338 ft | 379 kts | 345° |
| 2026-05-06 07:43 | 52.33155 | -1.17336 | 29756 ft | 378 kts | 345° |
| 2026-05-06 07:43 | 52.35709 | -1.18345 | 30177 ft | 377 kts | 345° |
| 2026-05-06 07:44 | 52.38257 | -1.19353 | 30581 ft | 376 kts | 345° |
| 2026-05-06 07:44 | 52.40832 | -1.20373 | 30979 ft | 375 kts | 345° |
| 2026-05-06 07:44 | 52.43340 | -1.21368 | 31360 ft | 374 kts | 345° |
| 2026-05-06 07:44 | 52.45877 | -1.22375 | 31733 ft | 373 kts | 345° |
| 2026-05-06 07:45 | 52.48426 | -1.23389 | 32102 ft | 373 kts | 344° |
| 2026-05-06 07:45 | 52.50932 | -1.24386 | 32453 ft | 373 kts | 344° |
| 2026-05-06 07:45 | 52.53465 | -1.25395 | 32807 ft | 372 kts | 344° |
| 2026-05-06 07:45 | 52.55987 | -1.26401 | 33157 ft | 372 kts | 344° |
| 2026-05-06 07:46 | 52.58522 | -1.27414 | 33506 ft | 371 kts | 344° |
| 2026-05-06 07:46 | 52.61001 | -1.28405 | 33856 ft | 370 kts | 344° |
| 2026-05-06 07:46 | 52.63551 | -1.29427 | 34008 ft | 376 kts | 344° |
| 2026-05-06 07:46 | 52.66082 | -1.30442 | 34014 ft | 381 kts | 344° |
| 2026-05-06 07:47 | 52.71293 | -1.32534 | 34013 ft | 385 kts | 344° |
| 2026-05-06 07:47 | 52.76521 | -1.34639 | 34014 ft | 389 kts | 344° |
| 2026-05-06 07:48 | 52.81831 | -1.36782 | 34014 ft | 392 kts | 344° |
| 2026-05-06 07:48 | 52.87157 | -1.38937 | 34014 ft | 395 kts | 344° |
| 2026-05-06 07:49 | 52.92537 | -1.41120 | 34010 ft | 398 kts | 344° |
| 2026-05-06 07:49 | 52.97919 | -1.43308 | 34012 ft | 400 kts | 343° |
| 2026-05-06 07:50 | 53.03339 | -1.45519 | 34010 ft | 402 kts | 343° |
| 2026-05-06 07:50 | 53.08813 | -1.47756 | 34007 ft | 404 kts | 343° |
| 2026-05-06 07:51 | 53.14312 | -1.50011 | 34001 ft | 406 kts | 343° |
| 2026-05-06 07:51 | 53.19802 | -1.52266 | 34000 ft | 408 kts | 343° |
| 2026-05-06 07:52 | 53.25336 | -1.54547 | 34001 ft | 409 kts | 343° |
| 2026-05-06 07:52 | 53.30897 | -1.56844 | 33997 ft | 410 kts | 343° |
| 2026-05-06 07:53 | 53.36443 | -1.59142 | 33999 ft | 411 kts | 343° |
| 2026-05-06 07:53 | 53.42025 | -1.61460 | 33996 ft | 412 kts | 343° |
| 2026-05-06 07:54 | 53.47598 | -1.63781 | 33991 ft | 413 kts | 343° |
| 2026-05-06 07:54 | 53.53199 | -1.66120 | 34003 ft | 414 kts | 342° |
| 2026-05-06 07:55 | 53.58822 | -1.68476 | 34008 ft | 415 kts | 342° |
| 2026-05-06 07:55 | 53.64460 | -1.70843 | 34014 ft | 416 kts | 342° |
| 2026-05-06 07:56 | 53.70086 | -1.73212 | 34017 ft | 416 kts | 342° |
| 2026-05-06 07:56 | 53.75698 | -1.75581 | 34029 ft | 417 kts | 342° |
| 2026-05-06 07:57 | 53.81368 | -1.77982 | 34032 ft | 418 kts | 342° |
| 2026-05-06 07:57 | 53.87013 | -1.80379 | 34030 ft | 418 kts | 342° |
| 2026-05-06 07:58 | 53.92688 | -1.82796 | 34034 ft | 419 kts | 342° |
| 2026-05-06 07:58 | 53.98375 | -1.85228 | 34029 ft | 420 kts | 342° |
| 2026-05-06 07:59 | 54.04058 | -1.87660 | 34036 ft | 420 kts | 342° |
| 2026-05-06 07:59 | 54.09735 | -1.90095 | 34027 ft | 421 kts | 342° |
| 2026-05-06 08:00 | 54.15438 | -1.92551 | 34025 ft | 421 kts | 342° |
| 2026-05-06 08:00 | 54.21183 | -1.94800 | 34025 ft | 425 kts | 349° |
| 2026-05-06 08:01 | 54.27127 | -1.94449 | 34023 ft | 432 kts | 8° |
| 2026-05-06 08:01 | 54.33051 | -1.92334 | 34024 ft | 432 kts | 7° |
| 2026-05-06 08:02 | 54.38990 | -1.90452 | 34026 ft | 433 kts | 7° |
| 2026-05-06 08:02 | 54.44957 | -1.88581 | 34026 ft | 433 kts | 7° |
| 2026-05-06 08:03 | 54.50900 | -1.86714 | 34030 ft | 433 kts | 7° |
| 2026-05-06 08:03 | 54.56834 | -1.84845 | 34033 ft | 433 kts | 7° |
| 2026-05-06 08:04 | 54.62771 | -1.82969 | 34034 ft | 434 kts | 7° |
| 2026-05-06 08:04 | 54.68738 | -1.81079 | 34037 ft | 434 kts | 7° |
| 2026-05-06 08:05 | 54.74736 | -1.79172 | 34032 ft | 434 kts | 7° |
| 2026-05-06 08:05 | 54.80697 | -1.77272 | 34046 ft | 435 kts | 7° |
| 2026-05-06 08:06 | 54.86648 | -1.75369 | 34050 ft | 435 kts | 7° |
| 2026-05-06 08:06 | 54.92623 | -1.73453 | 34053 ft | 435 kts | 7° |
| 2026-05-06 08:07 | 54.98606 | -1.71528 | 34060 ft | 435 kts | 7° |
| 2026-05-06 08:07 | 55.04606 | -1.69592 | 34064 ft | 435 kts | 7° |
| 2026-05-06 08:08 | 55.10580 | -1.67659 | 34062 ft | 436 kts | 7° |
| 2026-05-06 08:08 | 55.16594 | -1.65707 | 34062 ft | 436 kts | 7° |
| 2026-05-06 08:09 | 55.22552 | -1.63766 | 34060 ft | 436 kts | 7° |
| 2026-05-06 08:09 | 55.28571 | -1.61801 | 34061 ft | 436 kts | 7° |
| 2026-05-06 08:10 | 55.34539 | -1.59845 | 34055 ft | 436 kts | 7° |
| 2026-05-06 08:10 | 55.40549 | -1.57870 | 34054 ft | 436 kts | 7° |
| 2026-05-06 08:11 | 55.46566 | -1.57178 | 34056 ft | 429 kts | 351° |
| 2026-05-06 08:11 | 55.52373 | -1.59198 | 34055 ft | 425 kts | 344° |
| 2026-05-06 08:12 | 55.58199 | -1.61333 | 34052 ft | 426 kts | 344° |
| 2026-05-06 08:12 | 55.64011 | -1.63439 | 33777 ft | 425 kts | 344° |
| 2026-05-06 08:13 | 55.66929 | -1.64496 | 33268 ft | 420 kts | 344° |
| 2026-05-06 08:13 | 55.69777 | -1.65530 | 32763 ft | 415 kts | 344° |
| 2026-05-06 08:13 | 55.72592 | -1.66553 | 32260 ft | 411 kts | 344° |
| 2026-05-06 08:13 | 55.75398 | -1.67575 | 31751 ft | 406 kts | 344° |
| 2026-05-06 08:14 | 55.78138 | -1.68574 | 31248 ft | 403 kts | 344° |
| 2026-05-06 08:14 | 55.80924 | -1.69592 | 30721 ft | 402 kts | 344° |
| 2026-05-06 08:14 | 55.83656 | -1.70591 | 30188 ft | 401 kts | 344° |
| 2026-05-06 08:14 | 55.86387 | -1.71591 | 29658 ft | 399 kts | 344° |
| 2026-05-06 08:15 | 55.89116 | -1.72592 | 29124 ft | 398 kts | 344° |
| 2026-05-06 08:15 | 55.91853 | -1.73597 | 28599 ft | 397 kts | 344° |
| 2026-05-06 08:15 | 55.94545 | -1.74587 | 28071 ft | 396 kts | 344° |
| 2026-05-06 08:15 | 55.97228 | -1.75576 | 27541 ft | 394 kts | 344° |
| 2026-05-06 08:16 | 55.99919 | -1.76568 | 27009 ft | 393 kts | 344° |
| 2026-05-06 08:16 | 56.02600 | -1.77558 | 26485 ft | 391 kts | 344° |
| 2026-05-06 08:16 | 56.05235 | -1.78533 | 25964 ft | 390 kts | 344° |
| 2026-05-06 08:16 | 56.07891 | -1.79516 | 25438 ft | 388 kts | 344° |
| 2026-05-06 08:17 | 56.10556 | -1.80505 | 24904 ft | 381 kts | 344° |
| 2026-05-06 08:17 | 56.13120 | -1.81457 | 24381 ft | 376 kts | 344° |
| 2026-05-06 08:17 | 56.15651 | -1.82399 | 23864 ft | 371 kts | 344° |
| 2026-05-06 08:17 | 56.18188 | -1.83344 | 23335 ft | 366 kts | 344° |
| 2026-05-06 08:18 | 56.20652 | -1.84263 | 22880 ft | 360 kts | 344° |
| 2026-05-06 08:18 | 56.23091 | -1.85174 | 22423 ft | 355 kts | 344° |
| 2026-05-06 08:18 | 56.25494 | -1.86073 | 21908 ft | 351 kts | 344° |
| 2026-05-06 08:18 | 56.27861 | -1.86959 | 21400 ft | 348 kts | 344° |
| 2026-05-06 08:19 | 56.30233 | -1.87849 | 20878 ft | 345 kts | 345° |
| 2026-05-06 08:19 | 56.32563 | -1.88723 | 20360 ft | 343 kts | 345° |
| 2026-05-06 08:19 | 56.34878 | -1.89593 | 19852 ft | 340 kts | 345° |
| 2026-05-06 08:19 | 56.37204 | -1.90468 | 19340 ft | 337 kts | 345° |
| 2026-05-06 08:20 | 56.39465 | -1.91320 | 18833 ft | 335 kts | 345° |
| 2026-05-06 08:20 | 56.41738 | -1.92178 | 18333 ft | 332 kts | 345° |
| 2026-05-06 08:20 | 56.43999 | -1.93031 | 17819 ft | 330 kts | 345° |
| 2026-05-06 08:20 | 56.46239 | -1.93879 | 17308 ft | 328 kts | 345° |
| 2026-05-06 08:21 | 56.48453 | -1.94716 | 16713 ft | 325 kts | 345° |
| 2026-05-06 08:21 | 56.50648 | -1.95548 | 16109 ft | 322 kts | 345° |
| 2026-05-06 08:21 | 56.52833 | -1.96378 | 15541 ft | 317 kts | 345° |
| 2026-05-06 08:21 | 56.54982 | -1.97194 | 14970 ft | 313 kts | 345° |
| 2026-05-06 08:22 | 56.57098 | -1.98000 | 14407 ft | 310 kts | 345° |
| 2026-05-06 08:22 | 56.59195 | -1.98799 | 13827 ft | 307 kts | 346° |
| 2026-05-06 08:22 | 56.61247 | -1.99582 | 13243 ft | 305 kts | 346° |
| 2026-05-06 08:22 | 56.63313 | -2.00370 | 12724 ft | 300 kts | 346° |
| 2026-05-06 08:23 | 56.65356 | -2.01151 | 12207 ft | 296 kts | 346° |
| 2026-05-06 08:23 | 56.67342 | -2.01910 | 11698 ft | 293 kts | 346° |
| 2026-05-06 08:23 | 56.69346 | -2.02677 | 11177 ft | 290 kts | 346° |
| 2026-05-06 08:23 | 56.71308 | -2.03429 | 10662 ft | 287 kts | 346° |
| 2026-05-06 08:24 | 56.73236 | -2.04169 | 10152 ft | 285 kts | 346° |
| 2026-05-06 08:24 | 56.75148 | -2.04903 | 9864 ft | 275 kts | 346° |
| 2026-05-06 08:24 | 56.76997 | -2.05614 | 9598 ft | 268 kts | 346° |
| 2026-05-06 08:24 | 56.78812 | -2.06313 | 9356 ft | 265 kts | 347° |
| 2026-05-06 08:25 | 56.80592 | -2.06998 | 9218 ft | 259 kts | 347° |
| 2026-05-06 08:25 | 56.82367 | -2.07683 | 9076 ft | 256 kts | 347° |
| 2026-05-06 08:25 | 56.84094 | -2.08351 | 8940 ft | 254 kts | 347° |
| 2026-05-06 08:25 | 56.85807 | -2.09016 | 8786 ft | 253 kts | 347° |
| 2026-05-06 08:26 | 56.87546 | -2.09691 | 8527 ft | 253 kts | 347° |
| 2026-05-06 08:26 | 56.89250 | -2.10352 | 8270 ft | 252 kts | 347° |
| 2026-05-06 08:26 | 56.90957 | -2.11015 | 8007 ft | 250 kts | 346° |
| 2026-05-06 08:26 | 56.92606 | -2.11943 | 7747 ft | 247 kts | 332° |
| 2026-05-06 08:27 | 56.94102 | -2.13470 | 7486 ft | 245 kts | 330° |
| 2026-05-06 08:27 | 56.95593 | -2.15019 | 7225 ft | 244 kts | 329° |
| 2026-05-06 08:27 | 56.97059 | -2.16550 | 6963 ft | 243 kts | 329° |
| 2026-05-06 08:27 | 56.98523 | -2.18084 | 6699 ft | 242 kts | 329° |
| 2026-05-06 08:28 | 56.99987 | -2.19632 | 6426 ft | 241 kts | 329° |
| 2026-05-06 08:28 | 57.01419 | -2.21158 | 6167 ft | 240 kts | 329° |
| 2026-05-06 08:28 | 57.02871 | -2.22713 | 5898 ft | 239 kts | 329° |
| 2026-05-06 08:28 | 57.04302 | -2.24247 | 5622 ft | 238 kts | 329° |
| 2026-05-06 08:29 | 57.05736 | -2.25785 | 5234 ft | 240 kts | 329° |
| 2026-05-06 08:29 | 57.07157 | -2.27311 | 4945 ft | 236 kts | 329° |
| 2026-05-06 08:29 | 57.08557 | -2.28816 | 4678 ft | 233 kts | 329° |
| 2026-05-06 08:29 | 57.09957 | -2.30315 | 4409 ft | 230 kts | 329° |
| 2026-05-06 08:30 | 57.11331 | -2.31782 | 4146 ft | 228 kts | 329° |
| 2026-05-06 08:30 | 57.12702 | -2.33252 | 3883 ft | 226 kts | 330° |
| 2026-05-06 08:30 | 57.14615 | -2.35318 | 3431 ft | 228 kts | 329° |